Time;durP1;ratioP1;P1;durP2;ratioP2;P2;SDS_P1;SDS_P2;PMS_P1;PMS_P2;Temp;Humidity;BMP_temperature;BMP_pressure;BME280_temperature;BME280_humidity;BME280_pressure;Samples;Min_cycle;Max_cycle;Signal;HPM_P1;HPM_P2
2024/01/17 00:01:22;;;;;;;11.65;7.40;;;3.40;99.90;;;;;;4915594;29;20313;-79
2024/01/17 00:03:49;;;;;;;10.57;7.75;;;3.40;99.90;;;;;;4918950;29;20233;-79
2024/01/17 00:06:18;;;;;;;17.50;10.90;;;3.30;99.90;;;;;;4906504;29;20625;-82
2024/01/17 00:08:47;;;;;;;7.72;6.38;;;3.20;99.90;;;;;;4900355;29;20249;-81
2024/01/17 00:11:15;;;;;;;9.63;7.30;;;3.20;99.90;;;;;;4904247;29;20229;-78
2024/01/17 00:13:43;;;;;;;15.18;8.00;;;3.20;99.90;;;;;;4925642;29;20226;-81
2024/01/17 00:16:10;;;;;;;11.80;7.88;;;3.20;99.90;;;;;;4903312;29;20229;-81
2024/01/17 00:18:40;;;;;;;17.10;13.25;;;3.20;99.90;;;;;;4919161;29;20233;-79
2024/01/17 00:21:08;;;;;;;9.60;7.65;;;3.20;99.90;;;;;;4913716;29;20238;-79
2024/01/17 00:23:36;;;;;;;7.03;6.28;;;3.20;99.90;;;;;;4894888;29;20226;-81
2024/01/17 00:26:07;;;;;;;12.30;7.03;;;3.20;99.90;;;;;;4889897;29;20292;-82
2024/01/17 00:28:36;;;;;;;9.63;7.70;;;3.20;99.90;;;;;;4899842;29;20226;-82
2024/01/17 00:31:06;;;;;;;28.90;19.75;;;3.20;99.90;;;;;;4903261;29;20664;-79
2024/01/17 00:33:33;;;;;;;14.85;10.07;;;3.10;99.90;;;;;;4918191;29;20226;-79
2024/01/17 00:36:01;;;;;;;7.13;6.50;;;3.20;99.90;;;;;;4918335;29;20623;-81
2024/01/17 00:38:28;;;;;;;11.68;6.88;;;3.10;99.90;;;;;;4917022;29;20233;-82
2024/01/17 00:41:00;;;;;;;19.15;12.05;;;3.20;99.90;;;;;;4918397;29;20264;-81
2024/01/17 00:43:28;;;;;;;8.27;6.78;;;3.10;99.90;;;;;;4911620;29;20223;-79
2024/01/17 00:46:00;;;;;;;8.00;6.93;;;3.10;99.90;;;;;;4919074;29;20308;-79
2024/01/17 00:48:28;;;;;;;11.85;7.30;;;3.10;99.90;;;;;;4919729;29;20235;-81
2024/01/17 00:50:55;;;;;;;8.73;7.82;;;3.10;99.90;;;;;;4905827;29;20226;-78
2024/01/17 00:53:25;;;;;;;10.25;7.20;;;3.10;99.90;;;;;;4898884;29;20297;-81
2024/01/17 00:55:58;;;;;;;10.60;7.13;;;3.10;99.90;;;;;;4897264;29;20245;-82
2024/01/17 00:58:27;;;;;;;7.47;6.65;;;3.10;99.90;;;;;;4899839;29;20265;-81
2024/01/17 01:00:55;;;;;;;8.55;6.95;;;3.10;99.90;;;;;;4899718;29;20281;-81
2024/01/17 01:03:23;;;;;;;14.25;8.95;;;3.10;99.90;;;;;;4888217;29;20237;-78
2024/01/17 01:05:50;;;;;;;9.63;7.25;;;3.10;99.90;;;;;;4906547;29;20229;-82
2024/01/17 01:08:20;;;;;;;10.82;8.02;;;3.10;99.90;;;;;;4917067;29;20238;-79
2024/01/17 01:10:47;;;;;;;15.48;7.72;;;3.10;99.90;;;;;;4917786;29;20221;-78
2024/01/17 01:13:14;;;;;;;8.00;6.55;;;3.10;99.90;;;;;;4904383;29;20234;-82
2024/01/17 01:15:42;;;;;;;12.63;7.43;;;3.10;99.90;;;;;;4901895;29;20234;-81
2024/01/17 01:18:13;;;;;;;7.80;6.25;;;3.10;99.90;;;;;;4905474;29;20213;-80
2024/01/17 01:20:40;;;;;;;10.43;7.20;;;3.10;99.90;;;;;;4937519;29;20228;-78
2024/01/17 01:23:07;;;;;;;9.77;6.35;;;3.10;99.90;;;;;;4910056;29;20241;-83
2024/01/17 01:25:36;;;;;;;7.78;7.07;;;3.10;99.90;;;;;;4900838;29;20685;-78
2024/01/17 01:28:04;;;;;;;10.05;7.25;;;3.10;99.90;;;;;;4899163;29;20234;-81
2024/01/17 01:30:31;;;;;;;8.23;7.43;;;3.10;99.90;;;;;;4899002;29;20230;-82
2024/01/17 01:32:59;;;;;;;8.57;6.10;;;3.10;99.90;;;;;;4900237;29;20234;-78
2024/01/17 01:35:27;;;;;;;13.02;7.15;;;3.10;99.90;;;;;;4901314;29;20253;-79
2024/01/17 01:37:54;;;;;;;8.68;7.78;;;3.10;99.90;;;;;;4904699;29;20234;-78
2024/01/17 01:40:21;;;;;;;11.75;8.05;;;3.00;99.90;;;;;;4898899;29;20250;-82
2024/01/17 01:42:49;;;;;;;12.50;8.10;;;3.00;99.90;;;;;;4900182;29;20240;-79
2024/01/17 01:45:16;;;;;;;9.13;7.85;;;3.00;99.90;;;;;;4899376;29;20226;-81
2024/01/17 01:47:49;;;;;;;12.93;9.93;;;2.90;99.90;;;;;;4907665;29;20233;-82
2024/01/17 01:50:18;;;;;;;12.30;9.55;;;2.90;99.90;;;;;;4916286;29;20229;-77
2024/01/17 01:52:50;;;;;;;11.40;10.30;;;2.80;99.90;;;;;;4916462;29;20233;-77
2024/01/17 01:55:20;;;;;;;16.67;8.77;;;2.70;99.90;;;;;;4914091;29;20222;-77
2024/01/17 01:57:50;;;;;;;12.77;8.55;;;2.70;99.90;;;;;;4907274;29;20324;-81
2024/01/17 02:00:19;;;;;;;10.88;8.63;;;2.60;99.90;;;;;;4906949;29;20244;-80
2024/01/17 02:02:46;;;;;;;9.45;7.78;;;2.60;99.90;;;;;;4896799;29;20377;-77
2024/01/17 02:05:16;;;;;;;9.15;8.25;;;2.60;99.90;;;;;;4896290;29;20269;-80
2024/01/17 02:07:45;;;;;;;9.60;8.60;;;2.60;99.90;;;;;;4896613;29;20242;-82
2024/01/17 02:10:32;;;;;;;10.80;8.65;;;2.50;99.90;;;;;;4897189;29;20266;-80
2024/01/17 02:13:00;;;;;;;11.13;8.98;;;2.50;99.90;;;;;;4898969;29;20317;-80
2024/01/17 02:15:27;;;;;;;12.18;9.13;;;2.40;99.90;;;;;;4898888;29;20249;-80
2024/01/17 02:17:55;;;;;;;14.68;8.80;;;2.40;99.90;;;;;;4900508;29;20230;-80
2024/01/17 02:20:23;;;;;;;11.40;8.10;;;2.40;99.90;;;;;;4900617;29;20256;-77
2024/01/17 02:22:51;;;;;;;9.60;8.15;;;2.40;99.90;;;;;;4901086;29;20245;-79
2024/01/17 02:25:20;;;;;;;11.98;8.32;;;2.40;99.90;;;;;;4900692;29;20594;-80
2024/01/17 02:27:47;;;;;;;13.60;8.80;;;2.40;99.90;;;;;;4901076;29;20234;-80
2024/01/17 02:30:15;;;;;;;14.18;9.68;;;2.40;99.90;;;;;;4900448;29;20596;-79
2024/01/17 02:32:43;;;;;;;10.88;8.82;;;2.40;99.90;;;;;;4901169;29;20227;-80
2024/01/17 02:35:10;;;;;;;10.70;8.98;;;2.50;99.90;;;;;;4900616;29;20231;-80
2024/01/17 02:37:37;;;;;;;9.23;7.53;;;2.50;99.90;;;;;;4901170;29;20244;-82
2024/01/17 02:40:05;;;;;;;11.68;7.13;;;2.50;99.90;;;;;;4901084;29;20581;-77
2024/01/17 02:42:33;;;;;;;11.80;8.52;;;2.50;99.90;;;;;;4891965;29;20246;-76
2024/01/17 02:45:00;;;;;;;14.02;9.18;;;2.50;99.90;;;;;;4900841;29;20245;-76
2024/01/17 02:47:28;;;;;;;9.57;8.57;;;2.50;99.90;;;;;;4900379;29;20240;-76
2024/01/17 02:49:55;;;;;;;12.93;9.95;;;2.50;99.90;;;;;;4899713;29;20234;-77
2024/01/17 02:52:22;;;;;;;14.90;8.77;;;2.50;99.90;;;;;;4900304;29;20234;-81
2024/01/17 02:54:49;;;;;;;12.75;8.57;;;2.50;99.90;;;;;;4900571;29;20244;-80
2024/01/17 02:57:18;;;;;;;14.48;9.63;;;2.50;99.90;;;;;;4900072;29;20253;-80
2024/01/17 02:59:47;;;;;;;11.73;8.63;;;2.50;99.90;;;;;;4900418;29;20230;-81
2024/01/17 03:02:14;;;;;;;15.93;9.93;;;2.50;99.90;;;;;;4899629;29;20234;-82
2024/01/17 03:04:41;;;;;;;12.73;7.90;;;2.40;99.90;;;;;;4899682;29;20265;-82
2024/01/17 03:07:08;;;;;;;8.38;7.45;;;2.40;99.90;;;;;;4900360;29;20230;-82
2024/01/17 03:09:37;;;;;;;9.50;7.90;;;2.40;99.90;;;;;;4899393;29;20226;-80
2024/01/17 03:12:05;;;;;;;8.77;7.68;;;2.40;99.90;;;;;;4900020;29;20348;-76
2024/01/17 03:14:32;;;;;;;13.30;8.32;;;2.40;99.90;;;;;;4899768;29;20237;-80
2024/01/17 03:17:00;;;;;;;9.95;8.48;;;2.40;99.90;;;;;;4900024;29;20241;-76
2024/01/17 03:19:27;;;;;;;10.45;7.95;;;2.40;99.90;;;;;;4899504;29;20244;-76
2024/01/17 03:21:54;;;;;;;11.52;7.95;;;2.30;99.90;;;;;;4900122;29;20241;-79
2024/01/17 03:24:21;;;;;;;12.75;8.70;;;2.30;99.90;;;;;;4897655;29;20234;-77
2024/01/17 03:26:51;;;;;;;8.95;7.95;;;2.20;99.90;;;;;;4899787;29;20230;-77
2024/01/17 03:29:18;;;;;;;10.18;8.10;;;2.20;99.90;;;;;;4899631;29;20257;-77
2024/01/17 03:31:46;;;;;;;15.63;8.13;;;2.10;99.90;;;;;;4899529;29;20226;-76
2024/01/17 03:34:15;;;;;;;8.82;7.97;;;2.10;99.90;;;;;;4900004;29;20539;-77
2024/01/17 03:36:42;;;;;;;10.50;9.13;;;2.00;99.90;;;;;;4899168;29;20222;-77
2024/01/17 03:39:09;;;;;;;10.50;8.02;;;2.00;99.90;;;;;;4899663;29;20262;-77
2024/01/17 03:41:36;;;;;;;10.65;9.00;;;2.00;99.90;;;;;;4899500;29;20689;-80
2024/01/17 03:44:03;;;;;;;12.35;8.77;;;2.00;99.90;;;;;;4899645;29;20230;-81
2024/01/17 03:46:30;;;;;;;9.73;8.68;;;1.90;99.90;;;;;;4899004;29;20249;-80
2024/01/17 03:48:57;;;;;;;10.82;8.35;;;2.00;99.90;;;;;;4899572;29;20764;-77
2024/01/17 03:51:25;;;;;;;11.00;9.80;;;2.00;99.90;;;;;;4898958;29;20587;-77
2024/01/17 03:53:53;;;;;;;16.90;11.32;;;2.00;99.90;;;;;;4899580;29;20569;-79
2024/01/17 03:56:20;;;;;;;19.30;10.27;;;2.00;99.90;;;;;;4899104;29;20704;-80
2024/01/17 03:58:47;;;;;;;13.10;9.52;;;2.00;99.90;;;;;;4899715;29;20233;-77
2024/01/17 04:01:15;;;;;;;13.15;9.15;;;1.90;99.90;;;;;;4899364;29;20233;-80
2024/01/17 04:03:43;;;;;;;9.95;8.95;;;1.90;99.90;;;;;;4898836;29;20241;-77
2024/01/17 04:06:10;;;;;;;10.80;8.05;;;1.90;99.90;;;;;;4899583;29;20258;-77
2024/01/17 04:08:39;;;;;;;8.98;8.10;;;1.90;99.90;;;;;;4899773;29;20712;-77
2024/01/17 04:11:06;;;;;;;8.43;7.55;;;1.90;99.90;;;;;;4899579;29;20261;-80
2024/01/17 04:13:33;;;;;;;8.73;7.78;;;1.90;99.90;;;;;;4898864;29;20234;-77
2024/01/17 04:16:01;;;;;;;8.98;7.40;;;2.00;99.90;;;;;;4899111;29;20237;-77
2024/01/17 04:18:28;;;;;;;12.15;8.15;;;2.00;99.90;;;;;;4899036;29;20329;-77
2024/01/17 04:20:58;;;;;;;8.40;7.60;;;2.00;99.90;;;;;;4899247;29;20230;-81
2024/01/17 04:23:25;;;;;;;16.75;9.43;;;1.90;99.90;;;;;;4898641;29;20252;-77
2024/01/17 04:25:53;;;;;;;11.30;7.90;;;1.90;99.90;;;;;;4899345;29;20234;-76
2024/01/17 04:28:20;;;;;;;12.93;8.57;;;1.90;99.90;;;;;;4899329;29;20313;-80
2024/01/17 04:30:47;;;;;;;10.82;8.60;;;1.90;99.90;;;;;;4898677;29;20312;-80
2024/01/17 04:33:14;;;;;;;11.38;7.85;;;1.90;99.90;;;;;;4899498;29;20238;-80
2024/01/17 04:35:41;;;;;;;11.40;7.93;;;1.90;99.90;;;;;;4898689;29;20700;-76
2024/01/17 04:38:08;;;;;;;12.20;8.02;;;1.90;99.90;;;;;;4898647;29;20238;-77
2024/01/17 04:40:35;;;;;;;11.35;8.30;;;1.90;99.90;;;;;;4898439;29;20708;-76
2024/01/17 04:43:04;;;;;;;10.70;8.82;;;1.80;99.90;;;;;;4898784;29;20261;-80
2024/01/17 04:45:31;;;;;;;10.88;7.70;;;1.80;99.90;;;;;;4898242;29;20230;-79
2024/01/17 04:47:58;;;;;;;10.25;7.00;;;1.80;99.90;;;;;;4898333;29;20246;-76
2024/01/17 04:50:24;;;;;;;10.93;8.57;;;1.80;99.90;;;;;;4897938;29;20241;-79
2024/01/17 04:52:52;;;;;;;11.85;7.47;;;1.70;99.90;;;;;;4898755;29;20238;-79
2024/01/17 04:55:19;;;;;;;10.10;8.10;;;1.70;99.90;;;;;;4898633;29;20230;-81
2024/01/17 04:57:46;;;;;;;10.63;8.30;;;1.70;99.90;;;;;;4897707;29;20240;-80
2024/01/17 05:00:15;;;;;;;8.98;7.78;;;1.70;99.90;;;;;;4898539;29;20691;-81
2024/01/17 05:02:42;;;;;;;9.38;7.72;;;1.70;99.90;;;;;;4898082;29;20324;-81
2024/01/17 05:05:10;;;;;;;12.07;7.80;;;1.70;99.90;;;;;;4898260;29;20537;-77
2024/01/17 05:07:38;;;;;;;12.35;8.63;;;1.80;99.90;;;;;;4897736;29;20266;-81
2024/01/17 05:10:07;;;;;;;16.10;9.90;;;1.70;99.90;;;;;;4898473;29;20242;-81
2024/01/17 05:12:34;;;;;;;8.70;7.60;;;1.70;99.90;;;;;;4897681;29;20238;-80
2024/01/17 05:15:01;;;;;;;10.90;7.97;;;1.60;99.90;;;;;;4898523;29;20218;-81
2024/01/17 05:17:32;;;;;;;9.63;7.95;;;1.60;99.90;;;;;;4897642;29;20763;-79
2024/01/17 05:19:59;;;;;;;13.40;8.55;;;1.60;99.90;;;;;;4898095;29;20253;-79
2024/01/17 05:22:26;;;;;;;10.95;8.80;;;1.70;99.90;;;;;;4897970;29;20223;-82
2024/01/17 05:24:53;;;;;;;9.93;8.05;;;1.70;99.90;;;;;;4897896;29;20237;-80
2024/01/17 05:27:20;;;;;;;13.40;9.00;;;1.70;99.90;;;;;;4897820;29;20240;-81
2024/01/17 05:29:47;;;;;;;11.02;8.60;;;1.80;99.90;;;;;;4897755;29;20230;-81
2024/01/17 05:32:14;;;;;;;11.02;7.38;;;1.70;99.90;;;;;;4877126;29;20230;-78
2024/01/17 05:34:45;;;;;;;10.20;7.78;;;1.70;99.90;;;;;;4898073;29;20226;-78
2024/01/17 05:37:12;;;;;;;8.52;6.60;;;1.70;99.90;;;;;;4898146;29;20286;-82
2024/01/17 05:39:39;;;;;;;11.70;8.20;;;1.70;99.90;;;;;;4897873;29;20232;-82
2024/01/17 05:42:06;;;;;;;10.20;8.95;;;1.60;99.90;;;;;;4897894;29;20371;-82
2024/01/17 05:44:33;;;;;;;12.13;7.53;;;1.60;99.90;;;;;;4897815;29;20236;-82
2024/01/17 05:47:00;;;;;;;8.75;7.85;;;1.60;99.90;;;;;;4897640;29;20639;-82
2024/01/17 05:49:27;;;;;;;10.88;7.70;;;1.60;99.90;;;;;;4900595;29;20234;-82
2024/01/17 05:51:56;;;;;;;9.10;7.70;;;1.60;99.90;;;;;;4901776;29;20229;-82
2024/01/17 05:54:23;;;;;;;10.07;7.30;;;1.60;99.90;;;;;;4901347;29;20689;-82
2024/01/17 05:56:49;;;;;;;10.65;9.05;;;1.60;99.90;;;;;;4901523;29;20222;-82
2024/01/17 05:59:17;;;;;;;14.43;8.55;;;1.60;99.90;;;;;;4901182;29;20222;-81
2024/01/17 06:01:44;;;;;;;12.55;8.02;;;1.60;99.90;;;;;;4900959;29;20226;-82
2024/01/17 06:04:10;;;;;;;11.15;8.35;;;1.50;99.90;;;;;;4901530;29;20230;-81
2024/01/17 06:06:37;;;;;;;13.25;8.20;;;1.50;99.90;;;;;;4900757;29;20241;-82
2024/01/17 06:09:07;;;;;;;10.82;8.30;;;1.50;99.90;;;;;;4901224;29;20237;-82
2024/01/17 06:11:34;;;;;;;10.93;8.02;;;1.50;99.90;;;;;;4900882;29;20258;-82
2024/01/17 06:14:01;;;;;;;8.68;7.80;;;1.50;99.90;;;;;;4901108;29;20241;-82
2024/01/17 06:16:28;;;;;;;15.30;10.30;;;1.50;99.90;;;;;;4900880;29;20688;-82
2024/01/17 06:18:59;;;;;;;18.05;12.15;;;1.30;99.90;;;;;;4901303;29;20226;-82
2024/01/17 06:21:26;;;;;;;17.20;9.32;;;1.30;99.90;;;;;;4900697;29;20246;-82
2024/01/17 06:23:53;;;;;;;9.27;8.05;;;1.30;99.90;;;;;;4900891;29;20238;-81
2024/01/17 06:26:23;;;;;;;8.85;7.95;;;1.30;99.90;;;;;;4900617;29;20316;-81
2024/01/17 06:28:50;;;;;;;8.18;7.25;;;1.30;99.90;;;;;;4901387;29;20233;-81
2024/01/17 06:31:22;;;;;;;9.75;8.05;;;1.30;99.90;;;;;;4900932;29;20426;-81
2024/01/17 06:33:49;;;;;;;9.13;6.43;;;1.30;99.90;;;;;;4890898;29;20226;-82
2024/01/17 06:36:17;;;;;;;8.75;6.32;;;1.40;99.90;;;;;;4900535;29;20309;-81
2024/01/17 06:38:44;;;;;;;11.95;9.90;;;1.40;99.90;;;;;;4901305;29;20226;-81
2024/01/17 06:41:11;;;;;;;7.65;7.00;;;1.40;99.90;;;;;;4901918;29;20226;-81
2024/01/17 06:43:40;;;;;;;16.17;7.82;;;1.40;99.90;;;;;;4900967;29;20329;-81
2024/01/17 06:46:07;;;;;;;10.35;8.85;;;1.40;99.90;;;;;;4901045;29;20321;-81
2024/01/17 06:48:37;;;;;;;11.65;8.20;;;1.40;99.90;;;;;;4899961;29;20226;-81
2024/01/17 06:51:10;;;;;;;12.55;7.57;;;1.40;99.90;;;;;;4901140;29;20230;-81
2024/01/17 06:53:37;;;;;;;11.65;6.63;;;1.40;99.90;;;;;;4900532;29;20233;-81
2024/01/17 06:56:05;;;;;;;8.50;6.65;;;1.40;99.90;;;;;;4900820;29;20222;-78
2024/01/17 06:58:32;;;;;;;10.27;7.47;;;1.40;99.90;;;;;;4900459;29;20222;-78
2024/01/17 07:01:02;;;;;;;9.30;7.60;;;1.40;99.90;;;;;;4899081;29;20230;-81
2024/01/17 07:03:28;;;;;;;12.27;8.82;;;1.40;99.90;;;;;;4900324;29;20234;-81
2024/01/17 07:05:55;;;;;;;9.00;6.93;;;1.30;99.90;;;;;;4900064;29;20559;-82
2024/01/17 07:08:22;;;;;;;19.23;13.95;;;1.30;99.90;;;;;;4901071;29;20232;-81
2024/01/17 07:10:50;;;;;;;19.83;13.27;;;1.30;99.90;;;;;;4900410;29;20335;-79
2024/01/17 07:13:17;;;;;;;12.93;8.50;;;1.20;99.90;;;;;;4900896;29;20299;-78
2024/01/17 07:15:44;;;;;;;18.85;8.50;;;1.20;99.90;;;;;;4900309;29;20314;-78
2024/01/17 07:18:13;;;;;;;13.68;10.73;;;1.10;99.90;;;;;;4900886;29;20237;-79
2024/01/17 07:20:42;;;;;;;11.57;8.30;;;1.10;99.90;;;;;;4907765;29;20230;-79
2024/01/17 07:23:10;;;;;;;13.25;9.95;;;1.10;99.90;;;;;;4913385;29;20251;-79
2024/01/17 07:25:38;;;;;;;12.10;8.70;;;1.10;99.90;;;;;;4909684;29;20230;-78
2024/01/17 07:28:06;;;;;;;10.18;9.07;;;1.10;99.90;;;;;;4909362;29;20254;-79
2024/01/17 07:30:33;;;;;;;16.33;11.32;;;1.00;99.90;;;;;;4900154;29;20229;-80
2024/01/17 07:33:00;;;;;;;22.45;15.52;;;1.00;99.90;;;;;;4901715;29;20233;-78
2024/01/17 07:35:29;;;;;;;17.88;11.25;;;1.00;99.90;;;;;;4901123;29;20225;-77
2024/01/17 07:37:58;;;;;;;31.52;18.90;;;1.00;99.90;;;;;;4899675;29;20226;-78
2024/01/17 07:40:25;;;;;;;19.55;14.48;;;1.00;99.90;;;;;;4899795;29;20230;-78
2024/01/17 07:42:53;;;;;;;22.83;15.55;;;1.00;99.90;;;;;;4899136;29;20251;-78
2024/01/17 07:45:21;;;;;;;25.42;18.73;;;1.10;99.90;;;;;;4899583;29;20230;-78
2024/01/17 07:47:48;;;;;;;14.20;10.95;;;1.10;99.90;;;;;;4898912;29;20313;-78
2024/01/17 07:50:15;;;;;;;9.57;8.43;;;1.10;99.90;;;;;;4899505;29;20232;-77
2024/01/17 07:52:47;;;;;;;9.70;7.32;;;1.10;99.90;;;;;;4887086;29;20234;-78
2024/01/17 07:55:15;;;;;;;12.15;9.35;;;1.10;99.90;;;;;;4898901;29;20248;-78
2024/01/17 07:57:42;;;;;;;10.70;8.77;;;1.10;99.90;;;;;;4898762;29;20622;-78
2024/01/17 08:00:11;;;;;;;16.05;9.18;;;1.10;99.90;;;;;;4898724;29;20240;-78
2024/01/17 08:02:39;;;;;;;16.90;9.77;;;1.10;99.90;;;;;;4898215;29;20282;-78
2024/01/17 08:05:06;;;;;;;12.38;11.23;;;1.10;99.90;;;;;;4898788;29;20234;-78
2024/01/17 08:07:33;;;;;;;11.93;9.88;;;1.10;99.90;;;;;;4898473;29;20248;-79
2024/01/17 08:10:01;;;;;;;13.05;11.70;;;1.10;99.90;;;;;;4899169;29;20248;-78
2024/01/17 08:12:28;;;;;;;15.25;12.23;;;1.10;99.90;;;;;;4898475;29;20246;-78
2024/01/17 08:14:55;;;;;;;15.15;9.13;;;1.10;99.90;;;;;;4899132;29;20565;-77
2024/01/17 08:17:23;;;;;;;9.70;8.25;;;1.10;99.90;;;;;;4898148;29;20234;-78
2024/01/17 08:19:50;;;;;;;11.90;8.60;;;1.10;99.90;;;;;;4898757;29;20238;-78
2024/01/17 08:22:18;;;;;;;12.40;9.05;;;1.00;99.90;;;;;;4899075;29;20234;-82
2024/01/17 08:24:45;;;;;;;11.18;8.70;;;1.00;99.90;;;;;;4898137;29;20596;-82
2024/01/17 08:27:13;;;;;;;12.00;8.55;;;1.00;99.90;;;;;;4898835;29;20238;-81
2024/01/17 08:29:41;;;;;;;9.50;8.20;;;1.10;99.90;;;;;;4898515;29;20229;-81
2024/01/17 08:32:08;;;;;;;9.27;7.50;;;1.00;99.90;;;;;;4898542;29;20237;-78
2024/01/17 08:34:35;;;;;;;11.20;7.80;;;1.10;99.90;;;;;;4898118;29;20234;-78
2024/01/17 08:37:03;;;;;;;10.25;8.85;;;1.00;99.90;;;;;;4898115;29;20328;-78
2024/01/17 08:39:30;;;;;;;9.75;7.75;;;1.10;99.90;;;;;;4898376;29;20229;-79
2024/01/17 08:41:57;;;;;;;8.60;7.57;;;1.10;99.90;;;;;;4898617;29;20248;-81
2024/01/17 08:44:26;;;;;;;9.18;7.78;;;1.20;99.90;;;;;;4897381;29;20226;-81
2024/01/17 08:46:53;;;;;;;7.88;7.07;;;1.20;99.90;;;;;;4898117;29;20554;-81
2024/01/17 08:49:21;;;;;;;11.45;7.55;;;1.20;99.90;;;;;;4898460;29;20234;-81
2024/01/17 08:51:48;;;;;;;12.77;8.32;;;1.30;99.90;;;;;;4898094;29;20230;-78
2024/01/17 08:54:15;;;;;;;11.65;8.70;;;1.30;99.90;;;;;;4897981;29;20230;-78
2024/01/17 08:56:42;;;;;;;7.72;6.93;;;1.40;99.90;;;;;;4897914;29;20986;-78
2024/01/17 08:59:09;;;;;;;11.52;8.35;;;1.40;99.90;;;;;;4898423;29;20308;-79
2024/01/17 09:01:43;;;;;;;9.10;7.60;;;1.40;99.90;;;;;;4887683;29;20225;-79
2024/01/17 09:04:10;;;;;;;13.32;9.90;;;1.50;99.90;;;;;;4897455;29;20311;-78
2024/01/17 09:06:38;;;;;;;9.82;7.68;;;1.50;99.90;;;;;;4897405;29;20317;-81
2024/01/17 09:09:05;;;;;;;12.48;8.00;;;1.50;99.90;;;;;;4897989;29;20240;-78
2024/01/17 09:11:33;;;;;;;10.30;7.63;;;1.50;99.90;;;;;;4898239;29;20234;-78
2024/01/17 09:14:00;;;;;;;9.15;7.38;;;1.60;99.90;;;;;;4897816;29;20226;-78
2024/01/17 09:16:27;;;;;;;11.90;8.25;;;1.60;99.90;;;;;;4898180;29;20261;-78
2024/01/17 09:18:55;;;;;;;9.60;7.18;;;1.60;99.90;;;;;;4897926;29;20309;-78
2024/01/17 09:21:23;;;;;;;10.60;7.25;;;1.60;99.90;;;;;;4898070;29;20226;-78
2024/01/17 09:23:50;;;;;;;8.05;6.40;;;1.60;99.90;;;;;;4897216;29;20328;-81
2024/01/17 09:26:17;;;;;;;8.30;6.78;;;1.60;99.90;;;;;;4898048;29;20234;-81
2024/01/17 09:28:44;;;;;;;8.20;7.38;;;1.60;99.90;;;;;;4897652;29;20229;-78
2024/01/17 09:31:11;;;;;;;10.18;7.20;;;1.60;99.90;;;;;;4898267;29;20561;-78
2024/01/17 09:33:38;;;;;;;12.88;8.30;;;1.60;99.90;;;;;;4897488;29;20249;-81
2024/01/17 09:36:08;;;;;;;8.30;6.75;;;1.60;99.90;;;;;;4897906;29;20225;-81
2024/01/17 09:38:35;;;;;;;9.73;8.18;;;1.60;99.90;;;;;;4898116;29;20236;-78
2024/01/17 09:41:02;;;;;;;11.40;8.15;;;1.60;99.90;;;;;;4897810;29;20222;-78
2024/01/17 09:43:30;;;;;;;10.02;8.20;;;1.70;99.90;;;;;;4897311;29;20317;-78
2024/01/17 09:46:00;;;;;;;13.32;8.05;;;1.70;99.90;;;;;;4897802;29;20234;-78
2024/01/17 09:48:27;;;;;;;8.93;7.90;;;1.60;99.90;;;;;;4897952;29;20233;-81
2024/01/17 09:50:55;;;;;;;8.43;7.40;;;1.60;99.90;;;;;;4897264;29;20240;-78
2024/01/17 09:53:28;;;;;;;8.25;6.72;;;1.60;99.90;;;;;;4897808;29;20301;-78
2024/01/17 09:55:58;;;;;;;11.55;7.88;;;1.60;99.90;;;;;;4897509;29;20232;-81
2024/01/17 09:58:26;;;;;;;7.60;6.90;;;1.70;99.90;;;;;;4898149;29;20233;-78
2024/01/17 10:00:55;;;;;;;10.00;7.65;;;1.70;99.90;;;;;;4897473;29;20241;-78
2024/01/17 10:03:25;;;;;;;11.43;7.63;;;1.80;99.90;;;;;;4897490;29;20230;-78
2024/01/17 10:05:54;;;;;;;11.27;7.80;;;1.80;99.90;;;;;;4897179;29;20238;-76
2024/01/17 10:08:24;;;;;;;8.32;6.95;;;1.70;99.90;;;;;;4897526;29;20230;-79
2024/01/17 10:10:51;;;;;;;9.50;8.25;;;1.80;99.90;;;;;;4897423;29;20230;-82
2024/01/17 10:13:18;;;;;;;16.08;7.40;;;1.80;99.90;;;;;;4898051;29;20263;-81
2024/01/17 10:15:46;;;;;;;10.93;8.63;;;1.80;99.90;;;;;;4897710;29;20226;-78
2024/01/17 10:18:13;;;;;;;9.27;8.05;;;1.90;99.90;;;;;;4900388;29;20240;-81
2024/01/17 10:20:41;;;;;;;8.60;7.15;;;2.00;99.90;;;;;;4898080;29;20226;-78
2024/01/17 10:23:08;;;;;;;9.20;6.95;;;1.90;99.90;;;;;;4902964;29;20226;-77
2024/01/17 10:25:44;;;;;;;8.90;8.00;;;2.00;99.90;;;;;;4909928;29;20222;-80
2024/01/17 10:28:11;;;;;;;10.10;8.27;;;2.00;99.90;;;;;;4907920;29;20226;-78
2024/01/17 10:30:42;;;;;;;8.10;7.30;;;2.00;99.90;;;;;;4906510;29;20238;-78
2024/01/17 10:33:09;;;;;;;11.88;8.00;;;2.10;99.90;;;;;;4898451;29;20226;-81
2024/01/17 10:35:37;;;;;;;10.63;9.50;;;2.00;99.90;;;;;;4901494;29;20222;-81
2024/01/17 10:38:05;;;;;;;12.65;9.52;;;2.10;99.90;;;;;;4900629;29;20226;-81
2024/01/17 10:40:32;;;;;;;18.38;9.55;;;2.20;99.90;;;;;;4900922;29;20226;-78
2024/01/17 10:43:09;;;;;;;11.85;8.90;;;2.20;99.90;;;;;;4900247;29;20303;-81
2024/01/17 10:45:37;;;;;;;12.27;8.95;;;2.20;99.90;;;;;;4900988;29;20218;-78
2024/01/17 10:48:05;;;;;;;10.32;9.05;;;2.20;99.90;;;;;;4900285;29;20244;-78
2024/01/17 10:50:33;;;;;;;8.85;7.90;;;2.20;99.90;;;;;;4900052;29;20222;-78
2024/01/17 10:53:04;;;;;;;11.60;9.38;;;2.20;99.90;;;;;;4900168;29;20249;-78
2024/01/17 10:55:35;;;;;;;11.90;9.88;;;2.30;99.90;;;;;;4900589;29;20234;-81
2024/01/17 10:58:10;;;;;;;11.77;8.43;;;2.30;99.90;;;;;;4900450;29;20230;-78
2024/01/17 11:00:41;;;;;;;10.50;8.70;;;2.30;99.90;;;;;;4901069;29;20675;-81
2024/01/17 11:03:10;;;;;;;10.35;8.13;;;2.30;99.90;;;;;;4900341;29;20234;-78
2024/01/17 11:05:45;;;;;;;15.75;9.38;;;2.30;99.90;;;;;;4900836;29;20226;-79
2024/01/17 11:08:14;;;;;;;9.25;7.88;;;2.40;99.90;;;;;;4900001;29;20285;-81
2024/01/17 11:10:43;;;;;;;9.38;7.72;;;2.40;99.90;;;;;;4900888;29;20226;-77
2024/01/17 11:13:13;;;;;;;12.48;8.57;;;2.50;99.90;;;;;;4899446;29;20234;-78
2024/01/17 11:15:41;;;;;;;11.57;7.30;;;2.60;99.90;;;;;;4900563;29;20255;-77
2024/01/17 11:18:11;;;;;;;13.57;8.63;;;2.70;99.90;;;;;;4900287;29;20552;-78
2024/01/17 11:20:40;;;;;;;11.85;8.65;;;2.70;99.90;;;;;;4900541;29;20226;-80
2024/01/17 11:23:09;;;;;;;8.80;7.90;;;2.80;99.90;;;;;;4899648;29;20238;-81
2024/01/17 11:25:42;;;;;;;12.20;9.30;;;2.70;99.90;;;;;;4900087;29;20218;-81
2024/01/17 11:28:18;;;;;;;10.40;7.22;;;2.80;99.90;;;;;;4899170;29;20321;-77
2024/01/17 11:30:58;;;;;;;9.02;7.60;;;2.80;99.90;;;;;;4900563;29;20234;-78
2024/01/17 11:33:27;;;;;;;13.63;8.00;;;2.80;99.90;;;;;;4899598;29;20230;-80
2024/01/17 11:35:54;;;;;;;7.97;7.25;;;2.80;99.90;;;;;;4900066;29;20321;-81
2024/01/17 11:38:39;;;;;;;11.35;8.98;;;2.90;99.90;;;;;;4899731;29;20236;-81
2024/01/17 11:41:09;;;;;;;11.45;9.70;;;2.90;99.90;;;;;;4899488;29;20226;-81
2024/01/17 11:43:41;;;;;;;14.50;8.52;;;3.00;99.90;;;;;;4899894;29;20233;-81
2024/01/17 11:46:09;;;;;;;8.98;7.88;;;3.10;99.90;;;;;;4898853;29;20257;-80
2024/01/17 11:48:38;;;;;;;19.40;9.15;;;3.10;99.90;;;;;;4899329;29;20230;-81
2024/01/17 11:51:14;;;;;;;15.52;10.68;;;3.10;99.90;;;;;;4898855;29;20753;-81
2024/01/17 11:53:42;;;;;;;11.02;7.93;;;3.10;99.90;;;;;;4899372;29;20680;-80
2024/01/17 11:56:12;;;;;;;8.15;7.32;;;3.20;99.90;;;;;;4898479;29;20230;-80
2024/01/17 11:58:42;;;;;;;10.60;8.13;;;3.20;99.90;;;;;;4899674;29;20677;-80
2024/01/17 12:01:13;;;;;;;12.07;8.73;;;3.20;99.90;;;;;;4899130;29;20230;-77
2024/01/17 12:03:42;;;;;;;12.02;8.52;;;3.30;99.90;;;;;;4899169;29;20660;-77
2024/01/17 12:06:11;;;;;;;9.77;7.70;;;3.40;99.90;;;;;;4898752;29;20234;-77
2024/01/17 12:08:39;;;;;;;12.48;7.40;;;3.40;99.90;;;;;;4899215;29;20230;-78
2024/01/17 12:11:06;;;;;;;12.73;8.38;;;3.40;99.90;;;;;;4899002;29;20226;-79
2024/01/17 12:13:36;;;;;;;10.00;9.00;;;3.40;99.90;;;;;;4899324;29;20241;-78
2024/01/17 12:16:05;;;;;;;9.70;7.90;;;3.40;99.90;;;;;;4899344;29;20230;-81
2024/01/17 12:18:38;;;;;;;8.68;7.78;;;3.40;99.90;;;;;;4898924;29;20222;-80
2024/01/17 12:21:08;;;;;;;11.23;8.55;;;3.40;99.90;;;;;;4898722;29;20237;-80
2024/01/17 12:23:36;;;;;;;12.05;7.72;;;3.40;99.90;;;;;;4899116;29;20242;-77
2024/01/17 12:26:03;;;;;;;10.15;8.00;;;3.40;99.90;;;;;;4898915;29;20238;-77
2024/01/17 12:28:30;;;;;;;15.52;7.80;;;3.40;99.90;;;;;;4898718;29;20256;-78
2024/01/17 12:30:57;;;;;;;9.93;7.78;;;3.30;99.90;;;;;;4899457;29;20241;-80
2024/01/17 12:33:27;;;;;;;10.15;6.93;;;3.30;99.90;;;;;;4898024;29;20254;-81
2024/01/17 12:35:55;;;;;;;12.57;8.60;;;3.40;99.90;;;;;;4898705;29;20269;-81
2024/01/17 12:38:22;;;;;;;9.77;7.68;;;3.50;99.90;;;;;;4898550;29;20244;-80
2024/01/17 12:40:50;;;;;;;9.55;7.40;;;3.50;99.90;;;;;;4899035;29;20234;-80
2024/01/17 12:43:19;;;;;;;10.07;6.95;;;3.50;99.90;;;;;;4902009;29;20312;-77
2024/01/17 12:45:48;;;;;;;13.57;9.10;;;3.50;99.90;;;;;;4906589;29;20324;-77
2024/01/17 12:48:16;;;;;;;12.00;8.05;;;3.50;99.90;;;;;;4907770;29;20251;-80
2024/01/17 12:50:46;;;;;;;9.82;8.32;;;3.60;99.90;;;;;;4917160;29;20225;-80
2024/01/17 12:53:14;;;;;;;9.40;7.80;;;3.50;99.90;;;;;;4902703;29;20238;-80
2024/01/17 12:55:41;;;;;;;12.95;8.63;;;3.60;99.90;;;;;;4898502;29;20715;-77